sensor_id;sensor_type;location;lat;lon;timestamp;P1;durP1;ratioP1;P2;durP2;ratioP2
363;SDS011;173;48.718;9.274;2022-09-20T07:06:43;7.93;;;5.77;;
363;SDS011;173;48.718;9.274;2022-09-20T07:11:48;6.55;;;5.90;;
363;SDS011;173;48.718;9.274;2022-09-20T07:14:22;7.70;;;6.93;;
363;SDS011;173;48.718;9.274;2022-09-20T07:16:55;6.80;;;6.10;;
363;SDS011;173;48.718;9.274;2022-09-20T07:19:28;8.10;;;7.27;;
363;SDS011;173;48.718;9.274;2022-09-20T07:22:01;9.00;;;6.47;;
363;SDS011;173;48.718;9.274;2022-09-20T07:24:33;9.50;;;6.75;;
363;SDS011;173;48.718;9.274;2022-09-20T07:27:06;9.10;;;6.67;;
363;SDS011;173;48.718;9.274;2022-09-20T07:29:39;11.00;;;6.40;;
363;SDS011;173;48.718;9.274;2022-09-20T07:32:12;7.90;;;7.10;;
363;SDS011;173;48.718;9.274;2022-09-20T07:34:44;9.40;;;5.97;;
363;SDS011;173;48.718;9.274;2022-09-20T07:37:16;6.43;;;5.83;;
363;SDS011;173;48.718;9.274;2022-09-20T07:39:48;7.80;;;5.60;;
363;SDS011;173;48.718;9.274;2022-09-20T07:42:20;6.13;;;5.10;;
363;SDS011;173;48.718;9.274;2022-09-20T07:44:54;9.13;;;6.13;;
363;SDS011;173;48.718;9.274;2022-09-20T07:47:28;7.75;;;4.50;;
363;SDS011;173;48.718;9.274;2022-09-20T07:50:00;5.20;;;4.70;;
363;SDS011;173;48.718;9.274;2022-09-20T07:52:34;4.30;;;3.90;;
363;SDS011;173;48.718;9.274;2022-09-20T07:55:07;6.27;;;4.17;;
363;SDS011;173;48.718;9.274;2022-09-20T08:02:41;6.20;;;4.70;;
363;SDS011;173;48.718;9.274;2022-09-20T08:05:13;5.00;;;3.80;;
363;SDS011;173;48.718;9.274;2022-09-20T08:07:45;3.50;;;3.20;;
363;SDS011;173;48.718;9.274;2022-09-20T08:10:17;7.05;;;3.55;;
363;SDS011;173;48.718;9.274;2022-09-20T08:12:50;5.80;;;4.03;;
363;SDS011;173;48.718;9.274;2022-09-20T08:15:22;5.30;;;3.30;;
363;SDS011;173;48.718;9.274;2022-09-20T08:17:54;3.95;;;3.40;;
363;SDS011;173;48.718;9.274;2022-09-20T08:20:26;3.60;;;3.30;;
363;SDS011;173;48.718;9.274;2022-09-20T08:22:58;4.93;;;3.77;;
363;SDS011;173;48.718;9.274;2022-09-20T08:25:31;9.17;;;6.27;;
363;SDS011;173;48.718;9.274;2022-09-20T08:28:04;4.05;;;3.65;;
363;SDS011;173;48.718;9.274;2022-09-20T08:30:36;4.50;;;3.40;;
363;SDS011;173;48.718;9.274;2022-09-20T08:33:08;4.07;;;2.97;;
363;SDS011;173;48.718;9.274;2022-09-20T08:35:40;7.00;;;3.20;;
363;SDS011;173;48.718;9.274;2022-09-20T08:38:13;4.80;;;2.80;;
363;SDS011;173;48.718;9.274;2022-09-20T08:40:45;4.35;;;2.35;;
363;SDS011;173;48.718;9.274;2022-09-20T08:43:18;2.40;;;1.97;;
363;SDS011;173;48.718;9.274;2022-09-20T08:45:51;2.50;;;2.30;;
363;SDS011;173;48.718;9.274;2022-09-20T08:48:26;3.40;;;2.80;;
363;SDS011;173;48.718;9.274;2022-09-20T08:51:00;5.80;;;2.30;;
363;SDS011;173;48.718;9.274;2022-09-20T08:53:33;4.33;;;2.63;;
363;SDS011;173;48.718;9.274;2022-09-20T08:56:09;5.60;;;2.80;;
363;SDS011;173;48.718;9.274;2022-09-20T08:58:41;6.10;;;2.50;;
363;SDS011;173;48.718;9.274;2022-09-20T09:01:21;5.83;;;1.70;;
363;SDS011;173;48.718;9.274;2022-09-20T09:03:58;9.20;;;1.93;;
363;SDS011;173;48.718;9.274;2022-09-20T09:06:43;3.80;;;1.80;;
363;SDS011;173;48.718;9.274;2022-09-20T09:09:18;5.03;;;1.60;;
363;SDS011;173;48.718;9.274;2022-09-20T09:11:53;4.70;;;2.00;;
363;SDS011;173;48.718;9.274;2022-09-20T09:14:30;1.70;;;1.50;;
363;SDS011;173;48.718;9.274;2022-09-20T09:17:21;4.50;;;1.50;;
363;SDS011;173;48.718;9.274;2022-09-20T09:25:25;1.60;;;1.40;;
363;SDS011;173;48.718;9.274;2022-09-20T09:30:45;5.40;;;1.97;;
363;SDS011;173;48.718;9.274;2022-09-20T09:33:21;3.30;;;1.67;;
363;SDS011;173;48.718;9.274;2022-09-20T09:35:57;4.60;;;1.40;;
363;SDS011;173;48.718;9.274;2022-09-20T09:38:44;3.00;;;1.83;;
363;SDS011;173;48.718;9.274;2022-09-20T09:44:01;1.70;;;1.37;;
363;SDS011;173;48.718;9.274;2022-09-20T09:46:37;2.50;;;1.60;;
363;SDS011;173;48.718;9.274;2022-09-20T09:49:17;5.50;;;2.50;;
363;SDS011;173;48.718;9.274;2022-09-20T09:54:52;5.03;;;1.60;;
363;SDS011;173;48.718;9.274;2022-09-20T10:03:07;7.60;;;1.70;;
363;SDS011;173;48.718;9.274;2022-09-20T10:12:04;3.90;;;1.85;;
363;SDS011;173;48.718;9.274;2022-09-20T10:19:05;5.90;;;1.30;;
363;SDS011;173;48.718;9.274;2022-09-20T10:21:47;4.40;;;1.85;;
363;SDS011;173;48.718;9.274;2022-09-20T10:24:46;3.80;;;1.90;;
363;SDS011;173;48.718;9.274;2022-09-20T10:30:26;3.47;;;1.97;;
363;SDS011;173;48.718;9.274;2022-09-20T10:36:17;4.77;;;2.50;;
363;SDS011;173;48.718;9.274;2022-09-20T10:39:13;1.47;;;1.37;;
363;SDS011;173;48.718;9.274;2022-09-20T10:48:07;3.30;;;1.40;;
363;SDS011;173;48.718;9.274;2022-09-20T10:50:50;3.75;;;1.60;;
363;SDS011;173;48.718;9.274;2022-09-20T10:54:00;4.07;;;3.77;;
363;SDS011;173;48.718;9.274;2022-09-20T11:06:21;2.20;;;1.00;;
363;SDS011;173;48.718;9.274;2022-09-20T11:09:16;2.87;;;2.17;;
363;SDS011;173;48.718;9.274;2022-09-20T11:11:54;2.57;;;1.37;;
363;SDS011;173;48.718;9.274;2022-09-20T11:14:43;1.70;;;1.20;;
363;SDS011;173;48.718;9.274;2022-09-20T11:17:18;3.80;;;1.20;;
363;SDS011;173;48.718;9.274;2022-09-20T11:23:00;6.80;;;1.30;;
363;SDS011;173;48.718;9.274;2022-09-20T11:25:54;2.33;;;1.10;;
363;SDS011;173;48.718;9.274;2022-09-20T11:28:52;2.77;;;1.20;;
363;SDS011;173;48.718;9.274;2022-09-20T11:31:25;3.60;;;1.60;;
363;SDS011;173;48.718;9.274;2022-09-20T11:36:41;3.60;;;1.30;;
363;SDS011;173;48.718;9.274;2022-09-20T11:39:43;4.40;;;1.50;;
363;SDS011;173;48.718;9.274;2022-09-20T11:42:22;3.60;;;1.60;;
363;SDS011;173;48.718;9.274;2022-09-20T11:44:57;2.23;;;1.70;;
363;SDS011;173;48.718;9.274;2022-09-20T11:47:34;2.90;;;1.27;;
363;SDS011;173;48.718;9.274;2022-09-20T11:56:50;4.60;;;2.23;;
363;SDS011;173;48.718;9.274;2022-09-20T11:59:38;4.10;;;1.20;;
363;SDS011;173;48.718;9.274;2022-09-20T12:02:17;1.90;;;1.10;;
363;SDS011;173;48.718;9.274;2022-09-20T12:05:26;3.90;;;1.30;;
363;SDS011;173;48.718;9.274;2022-09-20T12:08:07;2.70;;;1.40;;
363;SDS011;173;48.718;9.274;2022-09-20T12:11:41;2.40;;;1.40;;
363;SDS011;173;48.718;9.274;2022-09-20T12:13:51;2.17;;;1.97;;
363;SDS011;173;48.718;9.274;2022-09-20T12:16:37;4.00;;;1.20;;
363;SDS011;173;48.718;9.274;2022-09-20T12:19:11;3.30;;;1.33;;
363;SDS011;173;48.718;9.274;2022-09-20T12:24:35;2.90;;;1.40;;
363;SDS011;173;48.718;9.274;2022-09-20T12:30:04;3.30;;;1.37;;
363;SDS011;173;48.718;9.274;2022-09-20T12:32:55;2.70;;;1.70;;
363;SDS011;173;48.718;9.274;2022-09-20T12:38:30;1.55;;;1.40;;
363;SDS011;173;48.718;9.274;2022-09-20T12:43:49;1.97;;;1.20;;
363;SDS011;173;48.718;9.274;2022-09-20T12:46:31;2.90;;;1.13;;
363;SDS011;173;48.718;9.274;2022-09-20T12:49:18;3.53;;;1.60;;
363;SDS011;173;48.718;9.274;2022-09-20T12:52:25;2.10;;;2.00;;
363;SDS011;173;48.718;9.274;2022-09-20T13:11:48;2.33;;;1.10;;
363;SDS011;173;48.718;9.274;2022-09-20T13:14:41;1.70;;;1.10;;
363;SDS011;173;48.718;9.274;2022-09-20T13:19:42;2.03;;;1.70;;
363;SDS011;173;48.718;9.274;2022-09-20T13:24:56;3.30;;;1.20;;
363;SDS011;173;48.718;9.274;2022-09-20T13:27:36;2.13;;;1.20;;
363;SDS011;173;48.718;9.274;2022-09-20T13:30:30;2.30;;;1.40;;
363;SDS011;173;48.718;9.274;2022-09-20T13:33:14;3.60;;;1.50;;
363;SDS011;173;48.718;9.274;2022-09-20T13:35:50;1.30;;;1.00;;
363;SDS011;173;48.718;9.274;2022-09-20T13:38:26;1.50;;;1.20;;
363;SDS011;173;48.718;9.274;2022-09-20T13:41:04;1.80;;;1.20;;
363;SDS011;173;48.718;9.274;2022-09-20T13:43:46;3.40;;;1.20;;
363;SDS011;173;48.718;9.274;2022-09-20T13:46:20;1.80;;;1.20;;
363;SDS011;173;48.718;9.274;2022-09-20T13:53:47;2.50;;;1.10;;
363;SDS011;173;48.718;9.274;2022-09-20T13:56:21;2.00;;;1.20;;
363;SDS011;173;48.718;9.274;2022-09-20T13:59:02;1.90;;;1.20;;
363;SDS011;173;48.718;9.274;2022-09-20T14:01:34;3.43;;;1.00;;
363;SDS011;173;48.718;9.274;2022-09-20T14:04:12;2.05;;;1.40;;
363;SDS011;173;48.718;9.274;2022-09-20T14:09:29;2.07;;;1.40;;
363;SDS011;173;48.718;9.274;2022-09-20T14:12:04;2.10;;;1.20;;
363;SDS011;173;48.718;9.274;2022-09-20T14:14:38;2.10;;;1.43;;
363;SDS011;173;48.718;9.274;2022-09-20T14:17:12;2.60;;;1.17;;
363;SDS011;173;48.718;9.274;2022-09-20T14:19:47;2.60;;;1.50;;
363;SDS011;173;48.718;9.274;2022-09-20T14:22:23;2.90;;;1.30;;
363;SDS011;173;48.718;9.274;2022-09-20T14:24:58;2.20;;;1.40;;
363;SDS011;173;48.718;9.274;2022-09-20T14:27:43;3.00;;;2.00;;
363;SDS011;173;48.718;9.274;2022-09-20T14:30:31;2.10;;;1.17;;
363;SDS011;173;48.718;9.274;2022-09-20T14:35:37;2.70;;;2.00;;
363;SDS011;173;48.718;9.274;2022-09-20T14:38:16;2.90;;;1.30;;
363;SDS011;173;48.718;9.274;2022-09-20T14:40:51;4.00;;;1.40;;
363;SDS011;173;48.718;9.274;2022-09-20T14:45:55;2.00;;;1.30;;
363;SDS011;173;48.718;9.274;2022-09-20T14:48:35;2.60;;;1.60;;
363;SDS011;173;48.718;9.274;2022-09-20T14:56:54;2.50;;;1.50;;
363;SDS011;173;48.718;9.274;2022-09-20T14:59:34;2.90;;;1.70;;
363;SDS011;173;48.718;9.274;2022-09-20T15:04:50;3.25;;;1.55;;
363;SDS011;173;48.718;9.274;2022-09-20T15:07:26;4.83;;;1.70;;
363;SDS011;173;48.718;9.274;2022-09-20T15:09:58;2.47;;;1.17;;
363;SDS011;173;48.718;9.274;2022-09-20T15:12:30;2.60;;;1.50;;
363;SDS011;173;48.718;9.274;2022-09-20T15:15:03;1.30;;;1.20;;
363;SDS011;173;48.718;9.274;2022-09-20T15:17:39;1.70;;;1.60;;
363;SDS011;173;48.718;9.274;2022-09-20T15:20:13;1.60;;;1.30;;
363;SDS011;173;48.718;9.274;2022-09-20T15:25:22;1.20;;;1.10;;
363;SDS011;173;48.718;9.274;2022-09-20T15:27:54;1.50;;;1.30;;
363;SDS011;173;48.718;9.274;2022-09-20T15:30:27;1.53;;;1.20;;
363;SDS011;173;48.718;9.274;2022-09-20T15:35:29;3.60;;;1.50;;
363;SDS011;173;48.718;9.274;2022-09-20T15:40:34;3.95;;;1.55;;
363;SDS011;173;48.718;9.274;2022-09-20T15:43:12;2.77;;;1.77;;
363;SDS011;173;48.718;9.274;2022-09-20T15:45:49;1.20;;;1.10;;
363;SDS011;173;48.718;9.274;2022-09-20T15:48:27;5.53;;;1.60;;
363;SDS011;173;48.718;9.274;2022-09-20T15:51:00;1.90;;;1.43;;
363;SDS011;173;48.718;9.274;2022-09-20T15:53:40;2.97;;;1.90;;
363;SDS011;173;48.718;9.274;2022-09-20T15:56:19;7.10;;;1.63;;
363;SDS011;173;48.718;9.274;2022-09-20T15:58:56;2.47;;;1.67;;
363;SDS011;173;48.718;9.274;2022-09-20T16:01:29;1.40;;;1.20;;
363;SDS011;173;48.718;9.274;2022-09-20T16:04:11;1.50;;;1.20;;
363;SDS011;173;48.718;9.274;2022-09-20T16:06:49;1.60;;;1.30;;
363;SDS011;173;48.718;9.274;2022-09-20T16:09:21;1.95;;;1.20;;
363;SDS011;173;48.718;9.274;2022-09-20T16:11:54;1.80;;;1.23;;
363;SDS011;173;48.718;9.274;2022-09-20T16:16:19;2.80;;;1.20;;
363;SDS011;173;48.718;9.274;2022-09-20T16:18:52;1.53;;;1.40;;
363;SDS011;173;48.718;9.274;2022-09-20T16:21:52;1.20;;;1.10;;
363;SDS011;173;48.718;9.274;2022-09-20T16:24:32;1.50;;;1.40;;
363;SDS011;173;48.718;9.274;2022-09-20T16:27:03;1.35;;;1.00;;
363;SDS011;173;48.718;9.274;2022-09-20T16:32:06;2.17;;;1.50;;
363;SDS011;173;48.718;9.274;2022-09-20T16:37:11;3.53;;;1.57;;
363;SDS011;173;48.718;9.274;2022-09-20T16:39:44;2.23;;;1.10;;
363;SDS011;173;48.718;9.274;2022-09-20T16:42:16;2.33;;;1.00;;
363;SDS011;173;48.718;9.274;2022-09-20T16:44:48;1.77;;;1.30;;
363;SDS011;173;48.718;9.274;2022-09-20T16:47:20;1.30;;;1.20;;
363;SDS011;173;48.718;9.274;2022-09-20T16:49:52;1.70;;;1.60;;
363;SDS011;173;48.718;9.274;2022-09-20T16:52:25;2.30;;;1.30;;
363;SDS011;173;48.718;9.274;2022-09-20T16:57:38;2.50;;;2.03;;
363;SDS011;173;48.718;9.274;2022-09-20T17:00:11;4.40;;;1.50;;
363;SDS011;173;48.718;9.274;2022-09-20T17:02:48;2.30;;;1.60;;
363;SDS011;173;48.718;9.274;2022-09-20T17:05:20;2.87;;;1.90;;
363;SDS011;173;48.718;9.274;2022-09-20T17:07:53;2.20;;;1.80;;
363;SDS011;173;48.718;9.274;2022-09-20T17:10:26;2.13;;;1.80;;
363;SDS011;173;48.718;9.274;2022-09-20T17:15:30;3.10;;;1.70;;
363;SDS011;173;48.718;9.274;2022-09-20T17:18:03;2.10;;;1.70;;
363;SDS011;173;48.718;9.274;2022-09-20T17:20:35;3.50;;;1.90;;
363;SDS011;173;48.718;9.274;2022-09-20T17:23:08;2.30;;;1.90;;
363;SDS011;173;48.718;9.274;2022-09-20T17:25:41;2.53;;;2.10;;
363;SDS011;173;48.718;9.274;2022-09-20T17:28:15;3.45;;;1.75;;
363;SDS011;173;48.718;9.274;2022-09-20T17:30:47;2.30;;;2.00;;
363;SDS011;173;48.718;9.274;2022-09-20T17:33:20;2.27;;;1.90;;
363;SDS011;173;48.718;9.274;2022-09-20T17:35:53;2.13;;;1.97;;
363;SDS011;173;48.718;9.274;2022-09-20T17:38:29;4.53;;;2.23;;
363;SDS011;173;48.718;9.274;2022-09-20T17:41:05;3.60;;;1.80;;
363;SDS011;173;48.718;9.274;2022-09-20T17:43:40;2.60;;;1.60;;
363;SDS011;173;48.718;9.274;2022-09-20T17:46:15;2.73;;;2.37;;
363;SDS011;173;48.718;9.274;2022-09-20T17:48:54;1.93;;;1.83;;
363;SDS011;173;48.718;9.274;2022-09-20T17:51:32;2.27;;;1.57;;
363;SDS011;173;48.718;9.274;2022-09-20T17:57:14;2.95;;;2.10;;
363;SDS011;173;48.718;9.274;2022-09-20T17:59:46;2.40;;;2.20;;
363;SDS011;173;48.718;9.274;2022-09-20T18:02:18;4.07;;;2.60;;
363;SDS011;173;48.718;9.274;2022-09-20T18:04:51;3.50;;;2.80;;
363;SDS011;173;48.718;9.274;2022-09-20T18:07:23;6.95;;;2.75;;
363;SDS011;173;48.718;9.274;2022-09-20T18:09:56;4.57;;;2.37;;
363;SDS011;173;48.718;9.274;2022-09-20T18:12:28;3.10;;;2.70;;
363;SDS011;173;48.718;9.274;2022-09-20T18:15:00;2.60;;;2.40;;
363;SDS011;173;48.718;9.274;2022-09-20T18:17:32;3.13;;;2.53;;
363;SDS011;173;48.718;9.274;2022-09-20T18:20:05;3.20;;;2.90;;
363;SDS011;173;48.718;9.274;2022-09-20T18:22:37;3.90;;;2.70;;
363;SDS011;173;48.718;9.274;2022-09-20T18:25:09;3.85;;;2.70;;
363;SDS011;173;48.718;9.274;2022-09-20T18:27:41;5.15;;;2.75;;
363;SDS011;173;48.718;9.274;2022-09-20T18:30:14;2.90;;;2.40;;
363;SDS011;173;48.718;9.274;2022-09-20T18:32:48;5.40;;;3.10;;
363;SDS011;173;48.718;9.274;2022-09-20T18:35:19;3.20;;;2.90;;
363;SDS011;173;48.718;9.274;2022-09-20T18:40:22;4.90;;;3.50;;
363;SDS011;173;48.718;9.274;2022-09-20T18:42:54;3.20;;;2.67;;
363;SDS011;173;48.718;9.274;2022-09-20T18:45:26;3.90;;;3.50;;
363;SDS011;173;48.718;9.274;2022-09-20T18:47:59;3.60;;;2.60;;
363;SDS011;173;48.718;9.274;2022-09-20T18:50:33;3.17;;;2.40;;
363;SDS011;173;48.718;9.274;2022-09-20T18:53:05;3.13;;;2.83;;
363;SDS011;173;48.718;9.274;2022-09-20T18:55:38;4.47;;;2.70;;
363;SDS011;173;48.718;9.274;2022-09-20T18:58:11;4.37;;;2.57;;
363;SDS011;173;48.718;9.274;2022-09-20T19:00:47;5.95;;;2.90;;
363;SDS011;173;48.718;9.274;2022-09-20T19:03:25;6.50;;;3.75;;
363;SDS011;173;48.718;9.274;2022-09-20T19:06:18;4.87;;;3.00;;
363;SDS011;173;48.718;9.274;2022-09-20T19:09:00;4.00;;;3.03;;
363;SDS011;173;48.718;9.274;2022-09-20T19:11:45;3.20;;;2.90;;
363;SDS011;173;48.718;9.274;2022-09-20T19:14:32;6.80;;;3.10;;
363;SDS011;173;48.718;9.274;2022-09-20T19:17:23;5.20;;;3.57;;
363;SDS011;173;48.718;9.274;2022-09-20T19:20:22;6.53;;;3.00;;
363;SDS011;173;48.718;9.274;2022-09-20T19:23:08;3.70;;;3.20;;
363;SDS011;173;48.718;9.274;2022-09-20T19:26:04;6.60;;;4.20;;
363;SDS011;173;48.718;9.274;2022-09-20T19:28:50;5.27;;;4.30;;
363;SDS011;173;48.718;9.274;2022-09-20T19:31:26;3.90;;;3.43;;
363;SDS011;173;48.718;9.274;2022-09-20T19:33:58;4.07;;;3.60;;
363;SDS011;173;48.718;9.274;2022-09-20T19:36:33;4.77;;;4.30;;
363;SDS011;173;48.718;9.274;2022-09-20T19:39:51;6.10;;;3.85;;
363;SDS011;173;48.718;9.274;2022-09-20T19:48:39;3.20;;;2.90;;
363;SDS011;173;48.718;9.274;2022-09-20T19:51:16;5.30;;;2.97;;
363;SDS011;173;48.718;9.274;2022-09-20T19:53:48;3.13;;;2.83;;
363;SDS011;173;48.718;9.274;2022-09-20T19:56:22;3.10;;;2.70;;
363;SDS011;173;48.718;9.274;2022-09-20T19:58:56;4.83;;;3.30;;
363;SDS011;173;48.718;9.274;2022-09-20T20:04:00;3.30;;;3.00;;
363;SDS011;173;48.718;9.274;2022-09-20T20:06:41;3.80;;;2.80;;
363;SDS011;173;48.718;9.274;2022-09-20T20:10:21;3.40;;;2.70;;
363;SDS011;173;48.718;9.274;2022-09-20T20:12:20;6.27;;;3.30;;
363;SDS011;173;48.718;9.274;2022-09-20T20:15:10;4.15;;;3.40;;
363;SDS011;173;48.718;9.274;2022-09-20T20:17:56;3.30;;;2.80;;
363;SDS011;173;48.718;9.274;2022-09-20T20:20:34;3.63;;;3.00;;
363;SDS011;173;48.718;9.274;2022-09-20T20:26:29;4.93;;;3.37;;
363;SDS011;173;48.718;9.274;2022-09-20T20:29:01;4.93;;;3.67;;
363;SDS011;173;48.718;9.274;2022-09-20T20:31:34;4.10;;;3.80;;
363;SDS011;173;48.718;9.274;2022-09-20T20:34:06;4.80;;;3.40;;
363;SDS011;173;48.718;9.274;2022-09-20T20:36:42;6.20;;;3.90;;
363;SDS011;173;48.718;9.274;2022-09-20T20:39:15;4.85;;;4.00;;
363;SDS011;173;48.718;9.274;2022-09-20T20:41:46;7.53;;;4.60;;
363;SDS011;173;48.718;9.274;2022-09-20T20:46:49;11.80;;;8.10;;
363;SDS011;173;48.718;9.274;2022-09-20T20:51:51;5.60;;;4.40;;
363;SDS011;173;48.718;9.274;2022-09-20T20:56:54;6.80;;;4.40;;
363;SDS011;173;48.718;9.274;2022-09-20T21:01:58;5.50;;;5.00;;
363;SDS011;173;48.718;9.274;2022-09-20T21:04:30;6.43;;;4.90;;
363;SDS011;173;48.718;9.274;2022-09-20T21:07:04;6.00;;;5.30;;
363;SDS011;173;48.718;9.274;2022-09-20T21:09:36;8.40;;;5.60;;
363;SDS011;173;48.718;9.274;2022-09-20T21:12:08;5.60;;;4.87;;
363;SDS011;173;48.718;9.274;2022-09-20T21:19:41;7.70;;;5.50;;
363;SDS011;173;48.718;9.274;2022-09-20T21:22:13;9.15;;;5.80;;
363;SDS011;173;48.718;9.274;2022-09-20T21:24:45;5.70;;;4.90;;
363;SDS011;173;48.718;9.274;2022-09-20T21:29:47;9.20;;;6.90;;
363;SDS011;173;48.718;9.274;2022-09-20T21:34:49;7.73;;;5.90;;
363;SDS011;173;48.718;9.274;2022-09-20T21:37:21;8.47;;;4.83;;
363;SDS011;173;48.718;9.274;2022-09-20T21:39:53;7.97;;;5.40;;
363;SDS011;173;48.718;9.274;2022-09-20T21:42:25;7.75;;;6.95;;
363;SDS011;173;48.718;9.274;2022-09-20T21:44:57;7.30;;;5.80;;
363;SDS011;173;48.718;9.274;2022-09-20T21:47:31;9.07;;;6.60;;
363;SDS011;173;48.718;9.274;2022-09-20T21:55:05;6.13;;;5.63;;
363;SDS011;173;48.718;9.274;2022-09-20T21:57:37;7.47;;;5.80;;
363;SDS011;173;48.718;9.274;2022-09-20T22:00:10;7.00;;;5.40;;
363;SDS011;173;48.718;9.274;2022-09-20T22:02:43;7.40;;;6.37;;
363;SDS011;173;48.718;9.274;2022-09-20T22:05:15;6.70;;;6.10;;
363;SDS011;173;48.718;9.274;2022-09-20T22:07:47;8.17;;;6.27;;
363;SDS011;173;48.718;9.274;2022-09-20T22:10:21;6.50;;;5.40;;
363;SDS011;173;48.718;9.274;2022-09-20T22:12:53;9.30;;;6.00;;
363;SDS011;173;48.718;9.274;2022-09-20T22:15:27;7.80;;;7.00;;
363;SDS011;173;48.718;9.274;2022-09-20T22:17:59;10.17;;;6.50;;
363;SDS011;173;48.718;9.274;2022-09-20T22:20:31;8.50;;;6.07;;
363;SDS011;173;48.718;9.274;2022-09-20T22:23:03;6.70;;;6.00;;
363;SDS011;173;48.718;9.274;2022-09-20T22:25:35;7.90;;;6.95;;
363;SDS011;173;48.718;9.274;2022-09-20T22:28:07;6.90;;;5.90;;
363;SDS011;173;48.718;9.274;2022-09-20T22:30:39;9.57;;;6.63;;
363;SDS011;173;48.718;9.274;2022-09-20T22:33:11;7.20;;;6.50;;
363;SDS011;173;48.718;9.274;2022-09-20T22:35:43;7.57;;;6.70;;
363;SDS011;173;48.718;9.274;2022-09-20T22:38:15;7.57;;;6.50;;
363;SDS011;173;48.718;9.274;2022-09-20T22:40:56;7.45;;;6.00;;
363;SDS011;173;48.718;9.274;2022-09-20T22:43:26;8.00;;;5.90;;
363;SDS011;173;48.718;9.274;2022-09-20T22:46:02;7.05;;;6.35;;
363;SDS011;173;48.718;9.274;2022-09-20T22:48:40;7.03;;;6.07;;
363;SDS011;173;48.718;9.274;2022-09-20T22:51:14;6.80;;;6.10;;
363;SDS011;173;48.718;9.274;2022-09-20T22:53:56;7.00;;;6.30;;
363;SDS011;173;48.718;9.274;2022-09-20T22:59:12;6.40;;;5.80;;
363;SDS011;173;48.718;9.274;2022-09-20T23:01:44;11.20;;;6.47;;
363;SDS011;173;48.718;9.274;2022-09-20T23:04:17;6.80;;;5.90;;
363;SDS011;173;48.718;9.274;2022-09-20T23:11:53;6.70;;;6.00;;
363;SDS011;173;48.718;9.274;2022-09-20T23:14:25;7.80;;;5.60;;
363;SDS011;173;48.718;9.274;2022-09-20T23:16:57;7.35;;;5.40;;
363;SDS011;173;48.718;9.274;2022-09-20T23:19:29;6.95;;;6.20;;
363;SDS011;173;48.718;9.274;2022-09-20T23:22:01;6.60;;;6.00;;
363;SDS011;173;48.718;9.274;2022-09-20T23:24:33;9.30;;;8.30;;
363;SDS011;173;48.718;9.274;2022-09-20T23:27:05;8.10;;;6.10;;
363;SDS011;173;48.718;9.274;2022-09-20T23:29:37;8.90;;;6.60;;
363;SDS011;173;48.718;9.274;2022-09-20T23:32:09;7.40;;;5.60;;
363;SDS011;173;48.718;9.274;2022-09-20T23:34:41;8.03;;;6.87;;
363;SDS011;173;48.718;9.274;2022-09-20T23:37:13;7.90;;;6.27;;
363;SDS011;173;48.718;9.274;2022-09-20T23:39:45;8.43;;;6.97;;
363;SDS011;173;48.718;9.274;2022-09-20T23:42:17;8.70;;;6.37;;
363;SDS011;173;48.718;9.274;2022-09-20T23:44:49;8.90;;;7.13;;
363;SDS011;173;48.718;9.274;2022-09-20T23:47:21;8.70;;;7.37;;
363;SDS011;173;48.718;9.274;2022-09-20T23:49:53;7.30;;;6.27;;
363;SDS011;173;48.718;9.274;2022-09-20T23:52:25;7.40;;;5.63;;
363;SDS011;173;48.718;9.274;2022-09-20T23:54:57;9.25;;;6.50;;
363;SDS011;173;48.718;9.274;2022-09-20T23:57:30;8.20;;;6.77;;
